Meteo Giornale » Osservazioni meteo Italia » Perugia

ore: 12:50 - Osservazioni Meteo Perugia
Lat. 43° 5' N Lon. 12° 30' E Alt. 208 metri s.l.m.

poco_nuvoloso Europe/Rome

29 °C

Poco Nuvoloso

Temp. 24 Ore

19 °C

29 °C

Nord

18.5 Km/h

Dew point 15 °C

Umidità 42 %

Visibilità  10 Km

Il sole sorge alle ore 06:15

Il sole tramonta alle ore 20:12

Data e Ora Cielo e Fenomeni T °C DP °C Um. % Pres. hPa Vis. km Vento km/h
Oggi h: 12:50 poco_nuvoloso Poco Nuvoloso 29 15 42 1014 10 N 18.5
Oggi h: 11:50 poco_nuvoloso Poco Nuvoloso 28 16 48 1015 10 N 22.2
Oggi h: 10:50 poco_nuvoloso Poco Nuvoloso 27 16 50 1015 10 N/NE 25.9
Oggi h: 09:50 poco_nuvoloso Poco Nuvoloso 25 16 57 1015 10 N/NE 25.9
Oggi h: 07:50 poco_nuvoloso Poco Nuvoloso 21 16 73 1015 10 N/NO 11.1
Oggi h: 06:50 poco_nuvoloso Poco Nuvoloso 19 16 82 1015 10 N 11.1
Oggi h: 05:50 sereno Sereno 19 16 82 1015 10 N 16.7
Oggi h: 04:50 sereno Sereno 19 16 82 1015 10 N/NO 7.4
Oggi h: 03:50 sereno Sereno 19 16 82 1015 10 N 11.1
Oggi h: 02:50 sereno Sereno 19 16 82 1015 10 N/NE 11.1
Oggi h: 01:50 sereno Sereno 21 16 73 1015 10 N/NO 11.1
Oggi h: 00:50 nuvoloso Nuvoloso 21 16 73 1015 10 N/NO 9.3
Ieri h: 23:50 molto_nuvoloso Molto Nuvoloso 21 16 73 1016 10 N 5.5
Ieri h: 22:50 nuvoloso Nuvoloso 22 16 68 1015 10 N/NE 18.5
Ieri h: 21:50 nuvoloso Nuvoloso 23 15 60 1015 10 N/NE 16.7
Ieri h: 20:50 nuvoloso Nuvoloso 25 15 53 1014 10 N/NE 16.7
Ieri h: 19:50 nuvoloso Nuvoloso 26 15 50 1014 10 N/NE 22.2
Ieri h: 18:50 nuvoloso Nuvoloso 26 15 50 1013 10 NE 20.3
Ieri h: 17:50 nuvoloso Nuvoloso 27 16 50 1013 10 E/NE 25.9
Ieri h: 16:50 nuvoloso Nuvoloso 28 17 51 1013 10 N/NE 24
Ieri h: 15:50 nuvoloso Nuvoloso 28 17 51 1013 10 N/NE 27.8
Ieri h: 14:50 molto_nuvoloso Molto Nuvoloso 27 17 54 1013 10 N/NE 31.5
Ieri h: 13:50 molto_nuvoloso Molto Nuvoloso 28 16 48 1013 10 N/NE 24